Time;durP1;ratioP1;P1;durP2;ratioP2;P2;SDS_P1;SDS_P2;PMS_P1;PMS_P2;Temp;Humidity;BMP_temperature;BMP_pressure;BME280_temperature;BME280_humidity;BME280_pressure;Samples;Min_cycle;Max_cycle;Signal;HPM_P1;HPM_P2
2022/04/27 00:00:03;;;;;;;11.98;7.50;;;8.50;99.90;;;;;;5029173;28;20024;-76
2022/04/27 00:02:30;;;;;;;12.40;7.78;;;8.50;99.90;;;;;;5033200;28;20496;-76
2022/04/27 00:04:57;;;;;;;13.55;7.90;;;8.50;99.90;;;;;;5010801;28;20477;-76
2022/04/27 00:07:22;;;;;;;11.93;7.15;;;8.60;99.90;;;;;;5024508;28;20069;-76
2022/04/27 00:09:48;;;;;;;11.43;8.00;;;8.60;99.90;;;;;;5017049;28;20119;-76
2022/04/27 00:12:14;;;;;;;11.65;7.80;;;8.60;99.90;;;;;;5029460;28;20053;-76
2022/04/27 00:14:40;;;;;;;9.82;6.90;;;8.60;99.90;;;;;;5026531;28;20052;-76
2022/04/27 00:17:06;;;;;;;12.63;7.80;;;8.50;99.90;;;;;;5017882;28;20036;-76
2022/04/27 00:19:31;;;;;;;12.80;7.93;;;8.50;99.90;;;;;;5029350;28;20108;-76
2022/04/27 00:21:57;;;;;;;16.05;8.50;;;8.50;99.90;;;;;;5024770;28;20078;-77
2022/04/27 00:24:22;;;;;;;11.18;7.57;;;8.50;99.90;;;;;;5028569;28;20224;-76
2022/04/27 00:26:49;;;;;;;11.65;7.93;;;8.50;99.90;;;;;;5010065;28;20122;-76
2022/04/27 00:29:14;;;;;;;10.63;7.32;;;8.50;99.90;;;;;;5028283;28;20022;-75
2022/04/27 00:31:40;;;;;;;10.25;5.57;;;8.60;99.90;;;;;;5028798;28;20390;-76
2022/04/27 00:34:05;;;;;;;8.88;5.80;;;8.60;99.90;;;;;;5025227;28;20029;-76
2022/04/27 00:36:31;;;;;;;10.05;6.57;;;8.60;99.90;;;;;;5028926;28;20048;-76
2022/04/27 00:38:58;;;;;;;9.25;5.93;;;8.60;99.90;;;;;;5024842;28;20670;-76
2022/04/27 00:41:24;;;;;;;8.52;5.32;;;8.60;99.90;;;;;;5026564;28;20183;-76
2022/04/27 00:43:49;;;;;;;11.07;6.07;;;8.60;99.90;;;;;;5024989;28;21551;-76
2022/04/27 00:46:15;;;;;;;9.32;6.15;;;8.60;99.90;;;;;;5009470;28;20032;-76
2022/04/27 00:48:41;;;;;;;8.50;5.80;;;8.50;99.90;;;;;;5033081;28;20156;-76
2022/04/27 00:51:10;;;;;;;8.80;5.78;;;8.50;99.90;;;;;;5028558;28;20050;-75
2022/04/27 00:53:37;;;;;;;7.95;4.88;;;8.50;99.90;;;;;;5003230;28;20033;-75
2022/04/27 00:56:04;;;;;;;9.45;6.00;;;8.50;99.90;;;;;;5015311;28;20028;-75
2022/04/27 00:58:29;;;;;;;8.65;5.07;;;8.40;99.90;;;;;;5029720;28;20401;-75
2022/04/27 01:00:55;;;;;;;7.60;5.25;;;8.40;99.90;;;;;;5027383;28;20032;-76
2022/04/27 01:03:24;;;;;;;10.82;6.28;;;8.40;99.90;;;;;;5021429;28;20043;-76
2022/04/27 01:05:51;;;;;;;7.30;5.20;;;8.50;99.90;;;;;;5027329;28;20056;-77
2022/04/27 01:08:19;;;;;;;11.68;6.57;;;8.50;99.90;;;;;;5025808;28;20033;-77
2022/04/27 01:10:47;;;;;;;9.00;5.85;;;8.50;99.90;;;;;;5026538;28;20052;-76
2022/04/27 01:13:13;;;;;;;9.23;5.53;;;8.60;99.90;;;;;;5026681;28;20033;-77
2022/04/27 01:15:40;;;;;;;10.93;6.50;;;8.60;99.90;;;;;;5031538;28;20040;-77
2022/04/27 01:18:08;;;;;;;9.43;6.75;;;8.50;99.90;;;;;;5028515;28;20064;-77
2022/04/27 01:20:44;;;;;;;12.68;6.97;;;8.60;99.90;;;;;;5011223;28;20037;-77
2022/04/27 01:23:15;;;;;;;10.10;7.13;;;8.60;99.90;;;;;;5027048;28;20112;-76
2022/04/27 01:26:06;;;;;;;10.57;7.10;;;8.60;99.90;;;;;;5027247;28;20492;-76
2022/04/27 01:28:34;;;;;;;9.20;5.60;;;8.60;99.90;;;;;;5027573;28;20037;-76
2022/04/27 01:31:03;;;;;;;7.53;5.43;;;8.50;99.90;;;;;;5028865;28;20053;-76
2022/04/27 01:33:34;;;;;;;10.25;6.45;;;8.50;99.90;;;;;;5013516;28;20075;-76
2022/04/27 01:36:00;;;;;;;10.57;6.85;;;8.50;99.90;;;;;;5027115;28;20028;-76
2022/04/27 01:38:26;;;;;;;9.73;6.40;;;8.50;99.90;;;;;;5030800;28;20025;-76
2022/04/27 01:40:54;;;;;;;9.55;6.20;;;8.50;99.90;;;;;;5025631;28;20420;-76
2022/04/27 01:43:24;;;;;;;11.05;7.03;;;8.50;99.90;;;;;;5027803;28;20080;-76
2022/04/27 01:45:50;;;;;;;9.70;6.50;;;8.50;99.90;;;;;;5031184;28;20049;-76
2022/04/27 01:48:16;;;;;;;10.48;6.70;;;8.50;99.90;;;;;;5020703;28;20021;-77
2022/04/27 01:50:42;;;;;;;11.70;7.47;;;8.50;99.90;;;;;;5024399;28;20071;-76
2022/04/27 01:55:52;;;;;;;10.55;6.63;;;8.50;99.90;;;;;;5029960;28;20124;-76
2022/04/27 01:58:18;;;;;;;14.27;6.70;;;8.50;99.90;;;;;;5025486;28;20541;-76
2022/04/27 02:00:46;;;;;;;8.63;5.88;;;8.50;99.90;;;;;;5025239;28;20021;-76
2022/04/27 02:03:13;;;;;;;10.00;6.47;;;8.50;99.90;;;;;;5027326;28;20387;-76
2022/04/27 02:05:39;;;;;;;12.07;7.88;;;8.50;99.90;;;;;;5012274;28;20112;-77
2022/04/27 02:08:05;;;;;;;11.48;7.70;;;8.50;99.90;;;;;;5021450;28;20180;-76
2022/04/27 02:10:31;;;;;;;12.75;8.32;;;8.50;99.90;;;;;;5027817;28;20108;-76
2022/04/27 02:12:57;;;;;;;12.65;8.48;;;8.50;99.90;;;;;;5026233;28;20037;-76
2022/04/27 02:15:23;;;;;;;16.00;8.45;;;8.50;99.90;;;;;;5026566;28;20079;-76
2022/04/27 02:17:50;;;;;;;13.50;8.75;;;8.50;99.90;;;;;;5027395;28;20057;-76
2022/04/27 02:20:18;;;;;;;13.63;9.07;;;8.50;99.90;;;;;;5024739;28;20013;-76
2022/04/27 02:22:44;;;;;;;12.77;8.45;;;8.50;99.90;;;;;;5023961;28;20041;-76
2022/04/27 02:25:10;;;;;;;14.10;9.55;;;8.50;99.90;;;;;;5025611;28;20021;-76
2022/04/27 02:27:35;;;;;;;14.02;8.60;;;8.50;99.90;;;;;;5028973;28;20036;-76
2022/04/27 02:30:02;;;;;;;13.55;9.02;;;8.50;99.90;;;;;;5024146;28;20029;-76
2022/04/27 02:32:28;;;;;;;11.63;7.90;;;8.50;99.90;;;;;;5022949;28;20057;-76
2022/04/27 02:34:54;;;;;;;14.77;8.52;;;8.50;99.90;;;;;;5009629;28;20072;-76
2022/04/27 02:37:19;;;;;;;12.73;8.23;;;8.50;99.90;;;;;;5009457;28;20091;-76
2022/04/27 02:39:45;;;;;;;13.02;8.10;;;8.50;99.90;;;;;;5025070;28;20452;-76
2022/04/27 02:42:11;;;;;;;11.50;7.93;;;8.50;99.90;;;;;;5009647;28;20029;-76
2022/04/27 02:44:36;;;;;;;13.00;7.82;;;8.50;99.90;;;;;;5031320;28;20060;-76
2022/04/27 02:47:02;;;;;;;11.35;7.55;;;8.50;99.90;;;;;;5023369;28;20033;-76
2022/04/27 02:52:13;;;;;;;;;;;8.50;99.90;;;;;;5029358;28;20095;-76
2022/04/27 02:54:39;;;;;;;12.55;8.10;;;8.50;99.90;;;;;;5030589;28;19915;-77
2022/04/27 02:57:04;;;;;;;12.45;7.68;;;8.50;99.90;;;;;;5007683;28;20029;-78
2022/04/27 02:59:30;;;;;;;12.40;7.72;;;8.40;99.90;;;;;;5029409;28;20014;-77
2022/04/27 03:01:56;;;;;;;11.57;7.45;;;8.40;99.90;;;;;;5023931;28;20021;-76
2022/04/27 03:04:21;;;;;;;11.27;7.13;;;8.40;99.90;;;;;;5012408;28;20116;-76
2022/04/27 03:06:47;;;;;;;13.13;7.93;;;8.40;99.90;;;;;;5029990;28;20060;-76
2022/04/27 03:09:12;;;;;;;12.85;7.88;;;8.50;99.90;;;;;;5034220;28;20079;-76
2022/04/27 03:11:38;;;;;;;12.05;7.57;;;8.50;99.90;;;;;;5034744;28;20123;-76
2022/04/27 03:14:04;;;;;;;12.20;7.55;;;8.50;99.90;;;;;;5029738;28;20036;-76
2022/04/27 03:16:29;;;;;;;13.60;8.18;;;8.50;99.90;;;;;;5030730;28;20500;-76
2022/04/27 03:18:55;;;;;;;13.73;8.60;;;8.50;99.90;;;;;;5013112;28;20042;-76
2022/04/27 03:21:20;;;;;;;11.95;7.97;;;8.50;99.90;;;;;;5034832;28;20032;-76
2022/04/27 03:23:46;;;;;;;13.02;7.82;;;8.60;99.90;;;;;;5031573;28;20026;-76
2022/04/27 03:26:12;;;;;;;11.65;7.88;;;8.60;99.90;;;;;;5013851;28;20039;-76
2022/04/27 03:28:37;;;;;;;12.98;8.27;;;8.50;99.90;;;;;;5031858;28;20034;-76
2022/04/27 03:31:03;;;;;;;12.95;8.15;;;8.50;99.90;;;;;;5030846;28;20075;-76
2022/04/27 03:33:29;;;;;;;12.52;7.80;;;8.50;99.90;;;;;;5027265;28;20029;-76
2022/04/27 03:35:55;;;;;;;13.32;8.30;;;8.50;99.90;;;;;;5028484;28;20036;-76
2022/04/27 03:38:21;;;;;;;12.35;8.10;;;8.50;99.90;;;;;;5030722;28;20025;-76
2022/04/27 03:40:49;;;;;;;12.93;8.35;;;8.50;99.90;;;;;;5032808;28;20080;-76
2022/04/27 03:43:15;;;;;;;13.25;8.55;;;8.50;99.90;;;;;;5026624;28;20049;-76
2022/04/27 03:45:41;;;;;;;13.48;9.02;;;8.50;99.90;;;;;;5036864;28;20413;-76
2022/04/27 03:48:07;;;;;;;13.52;8.43;;;8.50;99.90;;;;;;5026161;28;20539;-76
2022/04/27 03:50:34;;;;;;;15.80;9.18;;;8.40;99.90;;;;;;5033596;28;20033;-76
2022/04/27 03:53:00;;;;;;;12.05;8.02;;;8.40;99.90;;;;;;5010495;28;20038;-76
2022/04/27 03:55:28;;;;;;;14.15;9.02;;;8.40;99.90;;;;;;5024036;28;20105;-77
2022/04/27 03:57:54;;;;;;;13.70;8.52;;;8.40;99.90;;;;;;5024959;28;20060;-77
2022/04/27 04:00:20;;;;;;;14.18;9.27;;;8.40;99.90;;;;;;5033313;28;20045;-77
2022/04/27 04:02:45;;;;;;;15.23;9.23;;;8.40;99.90;;;;;;5029930;28;20081;-76
2022/04/27 04:05:11;;;;;;;13.93;9.05;;;8.40;99.90;;;;;;5026650;28;20032;-77
2022/04/27 04:07:37;;;;;;;13.63;8.68;;;8.40;99.90;;;;;;5027425;28;20029;-76
2022/04/27 04:10:03;;;;;;;12.30;7.93;;;8.40;99.90;;;;;;5029859;28;20021;-76
2022/04/27 04:12:29;;;;;;;13.23;8.55;;;8.40;99.90;;;;;;5030690;28;20048;-76
2022/04/27 04:14:54;;;;;;;15.82;8.82;;;8.40;99.90;;;;;;5028205;28;20501;-76
2022/04/27 04:17:20;;;;;;;15.05;9.48;;;8.40;99.90;;;;;;5025794;28;20371;-76
2022/04/27 04:19:46;;;;;;;15.20;8.93;;;8.50;99.90;;;;;;5011102;28;20062;-78
2022/04/27 04:22:13;;;;;;;13.95;8.63;;;8.50;99.90;;;;;;5009661;28;20032;-78
2022/04/27 04:28:29;;;;;;;15.13;8.52;;;8.50;99.90;;;;;;5034368;28;20056;-77
2022/04/27 04:30:10;;;;;;;12.27;8.18;;;8.40;99.90;;;;;;5026064;28;20032;-78
2022/04/27 04:32:40;;;;;;;14.10;9.35;;;8.40;99.90;;;;;;5027637;28;20032;-77
2022/04/27 04:35:06;;;;;;;12.45;8.13;;;8.40;99.90;;;;;;5025482;28;20022;-80
2022/04/27 04:37:32;;;;;;;14.40;8.23;;;8.40;99.90;;;;;;5035946;28;20129;-77
2022/04/27 04:39:58;;;;;;;11.98;8.18;;;8.40;99.90;;;;;;5011433;28;20441;-79
2022/04/27 04:42:23;;;;;;;12.20;8.25;;;8.40;99.90;;;;;;5012762;28;20057;-77
2022/04/27 04:44:49;;;;;;;12.50;7.90;;;8.40;99.90;;;;;;5031769;28;20033;-77
2022/04/27 04:47:15;;;;;;;13.05;8.43;;;8.50;99.90;;;;;;5025829;28;20062;-77
2022/04/27 04:49:40;;;;;;;12.73;8.32;;;8.50;99.90;;;;;;5025150;28;20098;-78
2022/04/27 04:52:07;;;;;;;13.07;8.18;;;8.50;99.90;;;;;;5016614;28;20486;-78
2022/04/27 04:54:34;;;;;;;13.20;8.63;;;8.50;99.90;;;;;;5028598;28;20033;-77
2022/04/27 04:57:00;;;;;;;13.73;8.25;;;8.60;99.90;;;;;;5022444;28;20112;-77
2022/04/27 04:59:25;;;;;;;14.90;8.95;;;8.60;99.90;;;;;;5014554;28;20029;-77
2022/04/27 05:01:51;;;;;;;13.45;8.88;;;8.50;99.90;;;;;;5021395;28;20026;-78
2022/04/27 05:04:17;;;;;;;15.30;10.10;;;8.50;99.90;;;;;;5021760;28;20473;-77
2022/04/27 05:06:44;;;;;;;15.75;9.80;;;8.50;99.90;;;;;;5003092;28;20512;-77
2022/04/27 05:09:10;;;;;;;14.30;8.82;;;8.40;99.90;;;;;;5021829;28;20370;-77
2022/04/27 05:11:36;;;;;;;14.77;9.80;;;8.40;99.90;;;;;;5017140;28;20037;-78
2022/04/27 05:14:01;;;;;;;15.80;10.93;;;8.40;99.90;;;;;;5021732;28;20029;-78
2022/04/27 05:16:27;;;;;;;17.98;10.88;;;8.40;99.90;;;;;;5025958;28;20397;-78
2022/04/27 05:18:53;;;;;;;15.73;10.68;;;8.50;99.90;;;;;;5027325;28;20031;-79
2022/04/27 05:21:18;;;;;;;17.25;11.65;;;8.70;99.90;;;;;;5021125;28;20052;-77
2022/04/27 05:23:44;;;;;;;17.50;10.10;;;8.80;99.90;;;;;;5021634;28;20091;-77
2022/04/27 05:26:11;;;;;;;16.65;10.38;;;8.90;99.90;;;;;;4974796;28;20422;-77
2022/04/27 05:34:05;;;;;;;16.27;9.57;;;9.10;99.90;;;;;;5021698;28;20074;-77
2022/04/27 05:36:31;;;;;;;16.40;10.15;;;9.30;99.90;;;;;;5018697;28;20041;-77
2022/04/27 05:38:57;;;;;;;13.65;8.68;;;9.40;99.90;;;;;;5019768;28;20079;-78
2022/04/27 05:41:22;;;;;;;15.43;10.23;;;9.50;99.90;;;;;;5026814;28;20076;-78
2022/04/27 05:43:48;;;;;;;15.27;9.73;;;9.50;99.90;;;;;;5020061;28;20049;-78
2022/04/27 05:46:15;;;;;;;12.63;8.88;;;9.60;99.90;;;;;;5020483;28;20402;-77
2022/04/27 05:48:40;;;;;;;15.52;9.65;;;9.70;99.90;;;;;;5026783;28;20025;-77
2022/04/27 05:51:06;;;;;;;14.23;9.13;;;9.80;99.90;;;;;;5020670;28;20032;-78
2022/04/27 05:53:32;;;;;;;13.93;9.15;;;9.80;99.90;;;;;;5011872;28;20033;-77
2022/04/27 05:55:57;;;;;;;16.55;9.40;;;9.80;99.90;;;;;;5007988;28;20032;-77
2022/04/27 05:58:24;;;;;;;14.45;8.93;;;9.80;99.90;;;;;;5022564;28;20026;-76
2022/04/27 06:00:50;;;;;;;13.63;9.38;;;9.70;99.90;;;;;;5016550;28;20102;-77
2022/04/27 06:03:15;;;;;;;12.90;9.18;;;9.60;99.90;;;;;;5024014;28;20025;-76
2022/04/27 06:05:42;;;;;;;14.25;9.25;;;9.60;99.90;;;;;;5016211;28;20406;-77
2022/04/27 06:08:09;;;;;;;14.95;9.55;;;9.50;99.90;;;;;;5012875;28;20049;-76
2022/04/27 06:10:35;;;;;;;13.15;8.88;;;9.40;99.90;;;;;;5021211;28;20036;-77
2022/04/27 06:13:01;;;;;;;15.02;9.43;;;9.40;99.90;;;;;;5018225;28;20030;-77
2022/04/27 06:15:26;;;;;;;15.43;9.65;;;9.40;99.90;;;;;;5013946;28;20033;-76
2022/04/27 06:17:52;;;;;;;14.80;9.40;;;9.50;99.90;;;;;;5015810;28;20881;-76
2022/04/27 06:20:18;;;;;;;13.60;9.50;;;9.50;99.90;;;;;;5005098;28;20111;-76
2022/04/27 06:22:44;;;;;;;14.52;10.07;;;9.50;99.90;;;;;;5007487;28;20045;-76
2022/04/27 06:25:10;;;;;;;14.95;10.40;;;9.60;99.90;;;;;;5024036;28;20022;-76
2022/04/27 06:27:36;;;;;;;16.92;10.52;;;9.60;99.90;;;;;;5024036;28;20029;-76
2022/04/27 06:30:01;;;;;;;14.82;9.55;;;9.70;99.90;;;;;;5019777;28;20029;-78
2022/04/27 06:32:31;;;;;;;18.23;11.60;;;9.80;99.90;;;;;;5025334;28;20079;-76
2022/04/27 06:35:01;;;;;;;15.68;10.38;;;10.10;99.90;;;;;;5012060;28;20086;-76
2022/04/27 06:37:27;;;;;;;15.73;9.88;;;10.20;99.90;;;;;;4999735;28;22217;-77
2022/04/27 06:39:53;;;;;;;16.85;10.55;;;10.50;99.90;;;;;;5018299;28;20022;-77
2022/04/27 06:42:22;;;;;;;16.27;10.20;;;10.60;99.90;;;;;;5015961;28;20044;-76
2022/04/27 06:44:48;;;;;;;15.05;9.57;;;10.80;99.90;;;;;;5016717;28;20021;-76
2022/04/27 06:47:14;;;;;;;13.80;9.48;;;10.80;99.90;;;;;;5020212;28;20037;-76
2022/04/27 06:49:40;;;;;;;16.48;10.73;;;10.80;99.90;;;;;;5023824;28;20033;-76
2022/04/27 06:52:06;;;;;;;12.45;8.23;;;10.80;99.90;;;;;;5025227;28;20030;-76
2022/04/27 06:54:32;;;;;;;14.30;8.93;;;10.80;99.90;;;;;;5024006;28;20044;-76
2022/04/27 06:56:58;;;;;;;16.00;10.38;;;10.80;99.90;;;;;;5023835;28;20117;-76
2022/04/27 06:59:24;;;;;;;13.85;9.27;;;10.90;99.90;;;;;;5004301;28;20402;-76
2022/04/27 07:01:50;;;;;;;14.82;9.80;;;10.90;99.90;;;;;;5025951;28;20028;-76
2022/04/27 07:04:17;;;;;;;14.35;9.70;;;10.70;99.90;;;;;;5005501;28;20109;-76
2022/04/27 07:06:42;;;;;;;15.88;10.25;;;10.70;99.90;;;;;;5026026;28;20026;-76
2022/04/27 07:09:10;;;;;;;13.90;9.57;;;10.80;99.90;;;;;;5008974;28;20495;-76
2022/04/27 07:11:36;;;;;;;14.48;9.90;;;10.80;99.90;;;;;;5023929;28;20037;-76
2022/04/27 07:14:02;;;;;;;14.40;9.35;;;10.80;99.90;;;;;;5023628;28;20030;-76
2022/04/27 07:16:28;;;;;;;15.00;10.32;;;10.90;99.90;;;;;;5019448;28;20022;-76
2022/04/27 07:18:55;;;;;;;14.68;10.40;;;10.90;99.90;;;;;;5024129;28;20096;-76
2022/04/27 07:21:21;;;;;;;12.73;8.88;;;10.90;99.90;;;;;;5028296;28;20027;-77
2022/04/27 07:23:47;;;;;;;14.52;9.65;;;10.80;99.90;;;;;;5016073;28;20029;-76
2022/04/27 07:26:13;;;;;;;15.95;10.65;;;10.70;99.90;;;;;;5023921;28;20029;-77
2022/04/27 07:28:39;;;;;;;15.77;10.55;;;10.60;99.90;;;;;;5025463;28;20579;-76
2022/04/27 07:31:08;;;;;;;16.27;10.48;;;10.60;99.90;;;;;;5026257;28;20066;-76
2022/04/27 07:33:34;;;;;;;15.57;10.00;;;10.70;99.90;;;;;;5025015;28;20057;-76
2022/04/27 07:36:00;;;;;;;15.82;9.18;;;10.60;99.90;;;;;;5021297;28;20028;-76
2022/04/27 07:38:27;;;;;;;16.80;9.63;;;10.70;99.90;;;;;;5009424;28;20041;-76
2022/04/27 07:40:53;;;;;;;17.27;9.10;;;10.90;99.90;;;;;;5024000;28;20390;-76
2022/04/27 07:43:19;;;;;;;11.23;6.80;;;11.00;99.90;;;;;;5025196;28;20025;-76
2022/04/27 07:45:44;;;;;;;11.00;6.85;;;11.20;99.90;;;;;;5028425;28;20030;-76
2022/04/27 07:48:11;;;;;;;9.70;6.55;;;11.40;99.90;;;;;;5027363;28;20373;-76
2022/04/27 07:50:37;;;;;;;10.43;6.50;;;11.60;99.90;;;;;;5026166;28;20366;-76
2022/04/27 07:53:03;;;;;;;10.05;6.72;;;11.60;99.90;;;;;;5028020;28;20041;-76
2022/04/27 07:55:29;;;;;;;9.02;6.40;;;11.70;99.90;;;;;;5023110;28;20072;-76
2022/04/27 07:57:56;;;;;;;8.43;5.72;;;11.70;99.90;;;;;;5023655;28;20589;-76
2022/04/27 08:00:21;;;;;;;9.25;5.90;;;11.50;99.90;;;;;;5027532;28;20021;-75
2022/04/27 08:02:47;;;;;;;10.02;6.50;;;11.30;99.90;;;;;;5024793;28;20075;-76
2022/04/27 08:05:15;;;;;;;10.98;6.85;;;11.10;99.90;;;;;;5025108;28;20462;-76
2022/04/27 08:07:48;;;;;;;8.23;5.97;;;11.00;99.90;;;;;;5009145;28;20042;-76
2022/04/27 08:10:19;;;;;;;10.25;6.82;;;10.90;99.90;;;;;;5022982;28;20509;-76
2022/04/27 08:12:49;;;;;;;8.30;6.20;;;10.80;99.90;;;;;;5029060;28;20052;-76
2022/04/27 08:15:20;;;;;;;9.07;6.18;;;10.90;99.90;;;;;;5025682;28;20030;-76
2022/04/27 08:17:54;;;;;;;9.13;6.20;;;10.90;99.90;;;;;;5010956;28;20739;-76
2022/04/27 08:23:10;;;;;;;8.55;5.90;;;11.10;99.90;;;;;;5024692;28;20109;-76
2022/04/27 08:25:37;;;;;;;7.57;5.50;;;11.40;99.90;;;;;;5030831;28;20032;-76
2022/04/27 08:28:06;;;;;;;8.32;5.88;;;11.50;99.90;;;;;;5021455;28;20441;-75
2022/04/27 08:30:40;;;;;;;10.68;6.18;;;11.70;99.90;;;;;;5007877;28;20032;-76
2022/04/27 08:33:06;;;;;;;9.75;5.18;;;11.80;99.90;;;;;;5010067;28;20114;-76
2022/04/27 08:35:33;;;;;;;7.63;5.38;;;11.80;99.90;;;;;;5022664;28;20476;-76
2022/04/27 08:38:02;;;;;;;7.53;5.07;;;11.90;99.90;;;;;;5027568;28;20029;-76
2022/04/27 08:40:28;;;;;;;8.40;5.07;;;11.90;99.90;;;;;;5024310;28;20492;-76
2022/04/27 08:42:54;;;;;;;7.97;5.53;;;11.90;99.90;;;;;;5028282;28;20034;-76
2022/04/27 08:45:21;;;;;;;7.63;5.07;;;11.90;99.90;;;;;;5027563;28;20036;-77
2022/04/27 08:47:49;;;;;;;6.93;5.13;;;11.90;99.90;;;;;;5008023;28;20520;-76
2022/04/27 08:50:20;;;;;;;6.75;4.63;;;12.00;99.90;;;;;;5010776;28;20050;-76
2022/04/27 08:52:46;;;;;;;6.63;4.15;;;12.10;99.90;;;;;;5026306;28;20117;-76
2022/04/27 08:55:12;;;;;;;6.03;3.92;;;12.20;99.90;;;;;;5025299;28;20473;-76
2022/04/27 08:57:39;;;;;;;6.53;3.95;;;12.30;99.90;;;;;;5027414;28;20443;-76
2022/04/27 09:00:07;;;;;;;5.45;3.55;;;12.20;99.90;;;;;;5021113;28;20099;-76
2022/04/27 09:02:33;;;;;;;4.75;3.08;;;12.10;99.90;;;;;;5024229;28;20421;-76
2022/04/27 09:05:10;;;;;;;4.63;3.38;;;12.00;99.90;;;;;;5026491;28;20235;-77
2022/04/27 09:07:56;;;;;;;4.72;3.28;;;11.90;99.90;;;;;;5024124;28;20026;-76
2022/04/27 09:10:24;;;;;;;4.25;3.10;;;11.90;99.90;;;;;;5023149;28;20094;-76
2022/04/27 09:12:52;;;;;;;4.97;3.30;;;11.90;99.90;;;;;;5024630;28;20116;-75
2022/04/27 09:15:21;;;;;;;6.10;3.85;;;11.90;99.90;;;;;;5025882;28;20030;-75
2022/04/27 09:20:56;;;;;;;5.40;3.50;;;11.90;99.90;;;;;;5016574;28;20028;-75
2022/04/27 09:23:37;;;;;;;4.45;3.30;;;11.90;99.90;;;;;;5016785;28;20032;-77
2022/04/27 09:26:18;;;;;;;5.15;3.67;;;12.00;99.90;;;;;;5024795;28;20030;-77
2022/04/27 09:28:48;;;;;;;5.72;4.32;;;12.10;99.90;;;;;;5027078;28;20486;-77
2022/04/27 09:31:31;;;;;;;5.80;4.30;;;12.30;99.90;;;;;;5023986;28;20033;-77
2022/04/27 09:34:01;;;;;;;4.25;3.15;;;12.40;99.90;;;;;;5018124;28;20022;-76
2022/04/27 09:36:27;;;;;;;4.80;3.58;;;12.50;99.90;;;;;;5019061;28;20044;-77
2022/04/27 09:38:56;;;;;;;7.82;3.63;;;12.70;99.90;;;;;;5018537;28;20025;-78
2022/04/27 09:41:42;;;;;;;4.50;3.15;;;12.80;99.90;;;;;;5025033;28;20033;-79
2022/04/27 09:44:35;;;;;;;4.38;3.05;;;12.90;99.90;;;;;;5020210;28;20036;-78
2022/04/27 09:47:06;;;;;;;5.35;3.65;;;13.00;99.90;;;;;;5022987;28;20686;-77
2022/04/27 09:49:36;;;;;;;4.85;3.78;;;13.20;99.90;;;;;;5010854;28;20520;-76
2022/04/27 09:52:04;;;;;;;4.00;3.13;;;13.30;99.80;;;;;;5022016;28;20029;-75
2022/04/27 09:54:32;;;;;;;4.72;3.10;;;13.40;99.60;;;;;;5025717;28;20030;-76
2022/04/27 09:57:00;;;;;;;4.18;2.88;;;13.50;99.30;;;;;;5023429;28;20558;-77
2022/04/27 09:59:31;;;;;;;5.03;3.15;;;13.60;99.40;;;;;;5007609;28;20036;-78
2022/04/27 10:02:28;;;;;;;4.43;3.25;;;13.80;97.90;;;;;;5024672;28;20181;-77
2022/04/27 10:04:55;;;;;;;6.03;3.42;;;13.70;97.90;;;;;;5008824;28;20029;-77
2022/04/27 10:07:21;;;;;;;8.07;3.88;;;13.80;98.20;;;;;;5022478;28;20049;-77
2022/04/27 10:09:49;;;;;;;5.82;3.60;;;13.90;97.40;;;;;;5022599;28;20036;-76
2022/04/27 10:12:15;;;;;;;6.40;4.65;;;13.80;98.20;;;;;;5022201;28;20056;-76
2022/04/27 10:14:42;;;;;;;6.43;3.88;;;13.60;98.60;;;;;;5026254;28;20037;-76
2022/04/27 10:17:09;;;;;;;6.55;4.30;;;13.50;99.10;;;;;;5010839;28;20030;-76
2022/04/27 10:19:35;;;;;;;5.95;3.60;;;13.70;99.40;;;;;;5006190;28;20030;-76
2022/04/27 10:22:04;;;;;;;4.80;3.25;;;13.50;97.50;;;;;;5023045;28;20135;-77
2022/04/27 10:24:50;;;;;;;5.40;3.50;;;13.40;98.30;;;;;;5021373;28;20032;-77
2022/04/27 10:27:20;;;;;;;5.15;3.38;;;13.50;99.00;;;;;;5020218;28;20034;-77
2022/04/27 10:30:02;;;;;;;5.65;3.72;;;13.60;98.60;;;;;;5018964;28;20495;-77
2022/04/27 10:32:41;;;;;;;5.40;3.28;;;13.70;99.00;;;;;;5021271;28;20057;-77
2022/04/27 10:35:12;;;;;;;6.05;3.65;;;13.90;98.50;;;;;;5018723;28;20017;-75
2022/04/27 10:37:48;;;;;;;4.68;3.58;;;13.90;97.80;;;;;;5022382;28;20022;-77
2022/04/27 10:40:29;;;;;;;4.45;2.80;;;13.80;97.40;;;;;;5015957;28;20104;-78
2022/04/27 10:43:06;;;;;;;3.42;2.40;;;13.80;97.10;;;;;;5022724;28;20030;-78
2022/04/27 10:45:51;;;;;;;7.72;4.10;;;13.80;96.50;;;;;;5027318;28;20124;-78
2022/04/27 10:48:21;;;;;;;4.85;3.55;;;13.70;97.30;;;;;;5005071;28;20045;-78
2022/04/27 10:51:02;;;;;;;4.03;2.70;;;13.70;97.80;;;;;;5022198;28;20076;-78
2022/04/27 10:53:29;;;;;;;4.43;2.90;;;13.70;98.00;;;;;;5015267;28;20076;-77
2022/04/27 10:55:59;;;;;;;5.28;3.08;;;13.70;98.40;;;;;;5023570;28;20037;-76
2022/04/27 10:58:36;;;;;;;4.18;2.92;;;13.70;98.60;;;;;;5021083;28;20075;-77
2022/04/27 11:01:11;;;;;;;5.05;2.85;;;13.50;98.90;;;;;;5017523;28;20021;-78
2022/04/27 11:03:38;;;;;;;5.50;3.28;;;13.60;98.50;;;;;;5024961;28;20486;-77
2022/04/27 11:06:06;;;;;;;6.07;3.50;;;13.70;98.70;;;;;;5020935;28;20025;-77
2022/04/27 11:08:38;;;;;;;5.55;3.33;;;13.70;98.40;;;;;;5019671;28;20038;-77
2022/04/27 11:11:07;;;;;;;4.15;3.05;;;13.60;98.60;;;;;;5003928;28;20477;-77
2022/04/27 11:13:34;;;;;;;5.05;3.15;;;13.50;99.00;;;;;;5019376;28;20088;-78
2022/04/27 11:16:07;;;;;;;3.97;2.65;;;13.20;99.40;;;;;;5019397;28;20037;-78
2022/04/27 11:18:49;;;;;;;4.80;3.07;;;13.20;99.50;;;;;;5012175;28;20056;-78
2022/04/27 11:21:21;;;;;;;3.20;2.40;;;13.30;99.40;;;;;;5011899;28;20017;-77
2022/04/27 11:23:47;;;;;;;4.82;3.10;;;13.30;98.70;;;;;;5019927;28;20381;-78
2022/04/27 11:26:14;;;;;;;4.15;2.63;;;13.30;98.70;;;;;;5025810;28;20025;-77
2022/04/27 11:28:42;;;;;;;4.00;3.00;;;13.40;98.90;;;;;;5030286;28;20033;-78
2022/04/27 11:31:10;;;;;;;4.50;3.13;;;13.40;99.00;;;;;;5024950;28;20053;-80
2022/04/27 11:33:40;;;;;;;6.00;3.40;;;13.40;99.70;;;;;;5022979;28;20057;-80
2022/04/27 11:36:20;;;;;;;5.47;3.80;;;13.30;99.30;;;;;;5004759;28;20025;-80
2022/04/27 11:38:45;;;;;;;5.28;3.70;;;13.40;99.60;;;;;;5026967;28;20071;-80
2022/04/27 11:41:16;;;;;;;5.30;3.60;;;13.40;99.60;;;;;;5027072;28;20386;-80
2022/04/27 11:43:43;;;;;;;4.90;3.85;;;13.50;99.60;;;;;;5022614;28;20022;-79
2022/04/27 11:46:10;;;;;;;4.05;3.42;;;13.60;99.50;;;;;;5010118;28;20482;-80
2022/04/27 11:48:37;;;;;;;6.38;3.88;;;13.70;99.20;;;;;;5024414;28;20065;-79
2022/04/27 11:51:03;;;;;;;6.03;3.40;;;13.70;99.60;;;;;;5013938;28;20029;-79
2022/04/27 11:53:29;;;;;;;5.32;3.80;;;13.90;99.70;;;;;;5029293;28;20033;-79
2022/04/27 11:55:57;;;;;;;5.00;3.75;;;14.00;98.80;;;;;;5023096;28;20087;-79
2022/04/27 11:58:27;;;;;;;5.80;3.67;;;14.10;98.40;;;;;;5025082;28;20087;-79
2022/04/27 12:01:01;;;;;;;5.22;3.17;;;14.20;98.40;;;;;;5025201;28;20058;-79
2022/04/27 12:03:28;;;;;;;4.68;3.20;;;14.30;98.30;;;;;;5007679;28;20032;-80
2022/04/27 12:05:55;;;;;;;3.70;2.53;;;14.40;97.80;;;;;;5024925;28;20033;-80
2022/04/27 12:08:22;;;;;;;5.22;3.08;;;14.40;97.50;;;;;;5028634;28;20637;-78
2022/04/27 12:10:51;;;;;;;4.30;3.00;;;14.50;97.60;;;;;;5006696;28;20588;-79
2022/04/27 12:13:20;;;;;;;4.32;2.85;;;14.50;97.60;;;;;;5019291;28;20048;-78
2022/04/27 12:15:55;;;;;;;4.03;2.60;;;14.60;97.10;;;;;;5025222;28;20594;-78
2022/04/27 12:18:25;;;;;;;4.72;2.88;;;14.50;97.60;;;;;;5010549;28;20428;-79
2022/04/27 12:20:52;;;;;;;5.85;3.60;;;14.70;97.10;;;;;;5025886;28;20029;-79
2022/04/27 12:23:23;;;;;;;4.35;3.15;;;14.80;96.80;;;;;;5027419;28;20026;-79
2022/04/27 12:25:55;;;;;;;5.45;3.55;;;14.80;96.80;;;;;;5021537;28;20113;-79
2022/04/27 12:28:29;;;;;;;3.05;2.33;;;14.80;96.40;;;;;;5020999;28;20040;-81
2022/04/27 12:30:59;;;;;;;4.60;3.00;;;14.70;96.10;;;;;;5025064;28;20521;-79
2022/04/27 12:33:34;;;;;;;3.00;2.33;;;14.60;95.60;;;;;;5030232;28;20033;-79
2022/04/27 12:39:20;;;;;;;4.45;2.35;;;14.50;96.00;;;;;;5025854;28;20040;-79
2022/04/27 12:41:47;;;;;;;6.00;2.88;;;14.50;96.40;;;;;;4993869;28;20037;-79
2022/04/27 12:44:22;;;;;;;2.75;1.85;;;14.50;95.90;;;;;;5008180;28;20025;-76
2022/04/27 12:47:01;;;;;;;4.40;2.45;;;14.50;95.80;;;;;;5021000;28;20083;-77
2022/04/27 12:49:32;;;;;;;5.65;2.97;;;14.50;95.20;;;;;;5007523;28;20096;-77
2022/04/27 12:52:14;;;;;;;2.95;2.10;;;14.30;95.60;;;;;;5010781;28;20025;-75
2022/04/27 12:54:40;;;;;;;3.90;2.17;;;14.30;95.90;;;;;;5030885;28;20028;-78
2022/04/27 12:57:06;;;;;;;3.22;2.08;;;14.40;95.40;;;;;;5032152;28;20104;-76
2022/04/27 12:59:32;;;;;;;3.05;1.67;;;14.40;95.10;;;;;;5027749;28;20025;-78
2022/04/27 13:02:00;;;;;;;4.35;1.98;;;14.50;94.30;;;;;;5007174;28;20018;-76
2022/04/27 13:04:27;;;;;;;2.67;1.95;;;14.50;94.20;;;;;;5011355;28;20485;-75
2022/04/27 13:06:53;;;;;;;3.53;2.22;;;14.70;94.30;;;;;;5014221;28;20048;-80
2022/04/27 13:12:03;;;;;;;3.95;2.30;;;14.70;94.20;;;;;;5021221;28;20104;-78
2022/04/27 13:14:29;;;;;;;3.35;2.50;;;14.70;94.90;;;;;;5023649;28;20029;-78